createdAt,value
2023-05-09T00:01:47.518Z,22.50
2023-05-09T00:04:15.999Z,20.45
2023-05-09T00:06:42.397Z,21.92
2023-05-09T00:09:08.852Z,25.88
2023-05-09T00:11:35.182Z,23.92
2023-05-09T00:14:02.379Z,23.33
2023-05-09T00:16:28.725Z,21.88
2023-05-09T00:18:55.966Z,21.17
2023-05-09T00:21:22.319Z,25.63
2023-05-09T00:23:48.626Z,22.80
2023-05-09T00:26:15.776Z,24.70
2023-05-09T00:28:43.083Z,22.75
2023-05-09T00:31:09.411Z,24.23
2023-05-09T00:33:35.804Z,24.90
2023-05-09T00:36:02.142Z,28.88
2023-05-09T00:38:28.461Z,23.80
2023-05-09T00:40:54.776Z,25.27
2023-05-09T00:43:21.436Z,21.23
2023-05-09T00:45:48.076Z,24.13
2023-05-09T00:48:15.561Z,23.10
2023-05-09T00:50:42.418Z,22.83
2023-05-09T00:53:09.087Z,22.88
2023-05-09T00:55:35.871Z,24.27
2023-05-09T00:58:03.712Z,22.08
2023-05-09T01:00:30.131Z,29.00
2023-05-09T01:02:56.926Z,30.60
2023-05-09T01:05:29.293Z,23.88
2023-05-09T01:08:13.312Z,22.50
2023-05-09T01:10:47.646Z,23.45
2023-05-09T01:13:29.852Z,25.08
2023-05-09T01:16:08.472Z,25.30
2023-05-09T01:18:45.721Z,22.50
2023-05-09T01:21:17.213Z,25.00
2023-05-09T01:23:44.056Z,22.70
2023-05-09T01:26:52.091Z,29.52
2023-05-09T01:29:44.230Z,23.40
2023-05-09T01:32:15.878Z,25.50
2023-05-09T01:34:45.021Z,23.08
2023-05-09T01:37:15.478Z,22.33
2023-05-09T01:39:47.536Z,26.27
2023-05-09T01:42:16.536Z,33.67
2023-05-09T01:44:45.421Z,24.58
2023-05-09T01:47:12.712Z,26.98
2023-05-09T01:49:41.282Z,22.02
2023-05-09T01:52:11.152Z,23.63
2023-05-09T01:54:40.286Z,21.57
2023-05-09T01:57:07.976Z,26.65
2023-05-09T01:59:35.768Z,31.17
2023-05-09T02:02:03.964Z,29.33
2023-05-09T02:04:30.969Z,26.10
2023-05-09T02:06:58.940Z,28.70
2023-05-09T02:09:25.820Z,26.40
2023-05-09T02:11:52.230Z,22.83
2023-05-09T02:14:19.532Z,26.35
2023-05-09T02:16:45.993Z,19.50
2023-05-09T02:19:12.338Z,21.85
2023-05-09T02:21:38.922Z,22.77
2023-05-09T02:24:05.935Z,27.15
2023-05-09T02:26:33.158Z,22.35
2023-05-09T02:29:00.667Z,23.35
2023-05-09T02:31:29.560Z,26.17
2023-05-09T02:33:57.354Z,27.33
2023-05-09T02:36:24.251Z,28.63
2023-05-09T02:38:51.199Z,28.15
2023-05-09T02:41:17.511Z,25.88
2023-05-09T02:43:44.224Z,27.35
2023-05-09T02:46:10.859Z,30.65
2023-05-09T02:48:37.516Z,28.73
2023-05-09T02:51:04.814Z,26.50
2023-05-09T02:53:31.191Z,31.83
2023-05-09T02:55:57.513Z,27.75
2023-05-09T02:58:23.884Z,26.90
2023-05-09T03:00:50.824Z,27.35
2023-05-09T03:03:17.918Z,26.52
2023-05-09T03:05:45.012Z,23.58
2023-05-09T03:08:11.437Z,26.90
2023-05-09T03:10:37.883Z,24.50
2023-05-09T03:13:04.926Z,25.27
2023-05-09T03:15:32.081Z,26.95
2023-05-09T03:17:59.743Z,24.05
2023-05-09T03:20:27.301Z,29.70
2023-05-09T03:22:53.764Z,26.92
2023-05-09T03:25:20.483Z,24.88
2023-05-09T03:27:46.790Z,30.30
2023-05-09T03:30:15.068Z,36.53
2023-05-09T03:32:43.302Z,29.90
2023-05-09T03:35:09.920Z,27.45
2023-05-09T03:37:36.719Z,28.25
2023-05-09T03:40:05.722Z,22.20
2023-05-09T03:42:38.986Z,31.65
2023-05-09T03:45:05.687Z,22.48
2023-05-09T03:47:32.139Z,33.85
2023-05-09T03:49:58.711Z,27.33
2023-05-09T03:52:25.611Z,31.55
2023-05-09T03:54:51.964Z,26.75
2023-05-09T03:57:18.439Z,27.40
2023-05-09T03:59:47.015Z,28.55
2023-05-09T04:02:14.727Z,24.17
2023-05-09T04:04:41.168Z,30.13
2023-05-09T04:07:08.029Z,26.77
2023-05-09T04:09:34.697Z,27.60
2023-05-09T04:12:01.020Z,25.63
2023-05-09T04:14:27.404Z,27.45
2023-05-09T04:16:54.257Z,29.02
2023-05-09T04:19:20.739Z,22.45
2023-05-09T04:21:47.573Z,25.70
2023-05-09T04:24:13.948Z,31.23
2023-05-09T04:26:46.424Z,28.92
2023-05-09T04:29:16.304Z,30.25
2023-05-09T04:31:48.012Z,28.25
2023-05-09T04:34:15.681Z,28.77
2023-05-09T04:36:42.429Z,28.67
2023-05-09T04:39:10.235Z,27.88
2023-05-09T04:41:38.994Z,29.77
2023-05-09T04:44:05.416Z,27.55
2023-05-09T04:46:31.911Z,23.08
2023-05-09T04:48:58.310Z,30.60
2023-05-09T04:51:26.143Z,23.23
2023-05-09T04:53:52.475Z,28.35
2023-05-09T04:56:22.540Z,28.40
2023-05-09T04:58:51.252Z,28.17
2023-05-09T05:01:17.624Z,29.48
2023-05-09T05:03:45.896Z,25.10
2023-05-09T05:06:12.240Z,29.67
2023-05-09T05:08:40.476Z,30.88
2023-05-09T05:11:06.875Z,26.60
2023-05-09T05:13:33.832Z,23.25
2023-05-09T05:16:01.417Z,24.08
2023-05-09T05:18:27.816Z,28.77
2023-05-09T05:20:54.321Z,28.77
2023-05-09T05:23:20.930Z,34.35
2023-05-09T05:25:49.290Z,33.63
2023-05-09T05:28:16.015Z,31.85
2023-05-09T05:30:42.381Z,28.05
2023-05-09T05:33:08.743Z,27.83
2023-05-09T05:35:35.461Z,30.20
2023-05-09T05:38:01.887Z,32.35
2023-05-09T05:40:28.669Z,25.63
2023-05-09T05:42:55.977Z,23.55
2023-05-09T05:45:23.473Z,28.77
2023-05-09T05:47:54.280Z,26.10
2023-05-09T05:50:22.517Z,28.40
2023-05-09T05:52:49.014Z,27.98
2023-05-09T05:55:17.541Z,32.40
2023-05-09T05:57:45.652Z,25.75
2023-05-09T06:00:15.115Z,29.90
2023-05-09T06:02:47.719Z,25.48
2023-05-09T06:05:21.592Z,30.52
2023-05-09T06:07:48.064Z,32.63
2023-05-09T06:10:15.947Z,29.35
2023-05-09T06:12:43.426Z,32.42
2023-05-09T06:15:10.236Z,30.17
2023-05-09T06:17:40.811Z,27.20
2023-05-09T06:20:07.627Z,32.15
2023-05-09T06:22:34.322Z,32.67
2023-05-09T06:25:00.678Z,29.70
2023-05-09T06:27:27.038Z,27.48
2023-05-09T06:29:53.463Z,29.42
2023-05-09T06:32:19.805Z,31.55
2023-05-09T06:34:46.215Z,30.65
2023-05-09T06:37:12.582Z,32.92
2023-05-09T06:39:38.879Z,32.60
2023-05-09T06:42:05.370Z,33.38
2023-05-09T06:44:36.808Z,34.72
2023-05-09T06:47:03.111Z,31.40
2023-05-09T06:49:29.489Z,30.85
2023-05-09T06:51:55.803Z,35.58
2023-05-09T06:54:22.113Z,31.40
2023-05-09T06:56:48.465Z,31.60
2023-05-09T06:59:16.412Z,36.65
2023-05-09T07:01:43.025Z,40.72
2023-05-09T07:04:09.453Z,34.88
2023-05-09T07:06:35.952Z,38.05
2023-05-09T07:09:03.630Z,27.95
2023-05-09T07:11:37.411Z,36.97
2023-05-09T07:14:04.133Z,40.47
2023-05-09T07:16:30.508Z,37.53
2023-05-09T07:18:56.829Z,40.17
2023-05-09T07:21:23.197Z,34.97
2023-05-09T07:23:49.524Z,46.08
2023-05-09T07:26:15.848Z,56.63
2023-05-09T07:28:42.196Z,48.33
2023-05-09T07:31:09.296Z,51.35
2023-05-09T07:33:36.004Z,53.45
2023-05-09T07:36:02.750Z,52.35
2023-05-09T07:38:29.069Z,51.72
2023-05-09T07:40:55.371Z,48.95
2023-05-09T07:43:21.655Z,53.47
2023-05-09T07:45:48.057Z,54.75
2023-05-09T07:48:14.414Z,47.10
2023-05-09T07:50:40.777Z,48.65
2023-05-09T07:53:07.080Z,52.95
2023-05-09T07:55:33.403Z,44.05
2023-05-09T07:57:59.688Z,50.17
2023-05-09T08:00:26.018Z,48.55
2023-05-09T08:02:52.960Z,45.00
2023-05-09T08:05:19.924Z,47.97
2023-05-09T08:07:46.504Z,48.20
2023-05-09T08:10:12.942Z,45.92
2023-05-09T08:12:39.643Z,45.42
2023-05-09T08:15:06.727Z,44.10
2023-05-09T08:17:33.096Z,43.25
2023-05-09T08:19:59.446Z,42.33
2023-05-09T08:22:25.761Z,38.75
2023-05-09T08:24:52.260Z,39.85
2023-05-09T08:27:18.579Z,48.03
2023-05-09T08:29:45.426Z,45.63
2023-05-09T08:32:11.736Z,42.05
2023-05-09T08:34:38.148Z,43.40
2023-05-09T08:37:04.699Z,37.72
2023-05-09T08:39:31.439Z,41.88
2023-05-09T08:41:59.331Z,40.03
2023-05-09T08:44:27.792Z,43.17
2023-05-09T08:46:58.295Z,42.97
2023-05-09T08:49:25.508Z,44.28
2023-05-09T08:51:52.582Z,40.70
2023-05-09T08:54:20.664Z,42.92
2023-05-09T08:56:49.558Z,38.35
2023-05-09T08:59:17.177Z,41.13
2023-05-09T09:01:43.649Z,41.03
2023-05-09T09:04:11.883Z,38.35
2023-05-09T09:06:39.652Z,40.47
2023-05-09T09:09:08.916Z,44.13
2023-05-09T09:12:12.510Z,38.95
2023-05-09T09:14:54.278Z,41.65
2023-05-09T09:18:07.405Z,38.30
2023-05-09T09:23:32.572Z,36.80
2023-05-09T09:26:06.708Z,37.35
2023-05-09T09:28:33.628Z,41.20
2023-05-09T10:02:19.212Z,38.10
2023-05-09T10:08:06.969Z,40.30
2023-05-09T10:11:04.351Z,43.80
2023-05-09T10:13:38.325Z,34.63
2023-05-09T10:16:08.031Z,38.40
2023-05-09T10:18:43.380Z,42.08
2023-05-09T10:21:24.494Z,43.92
2023-05-09T10:27:19.115Z,44.65
2023-05-09T10:30:15.546Z,48.58
2023-05-09T10:32:56.628Z,49.22
2023-05-09T10:35:49.299Z,46.25
2023-05-09T10:38:21.650Z,52.10
2023-05-09T10:41:00.453Z,60.00
2023-05-09T10:43:39.837Z,63.55
2023-05-09T10:46:10.534Z,61.08
2023-05-09T10:48:47.258Z,59.28
2023-05-09T10:51:16.256Z,52.03
2023-05-09T10:54:02.338Z,64.43
2023-05-09T10:56:48.069Z,59.40
2023-05-09T10:59:38.376Z,66.22
2023-05-09T11:02:20.800Z,71.53
2023-05-09T11:04:55.612Z,66.65
2023-05-09T11:07:43.374Z,65.28
2023-05-09T11:10:21.950Z,57.67
2023-05-09T11:13:01.846Z,56.08
2023-05-09T11:15:33.156Z,51.80
2023-05-09T11:18:09.838Z,53.05
2023-05-09T11:20:44.448Z,54.75
2023-05-09T11:23:34.967Z,48.92
2023-05-09T11:26:08.546Z,53.53
2023-05-09T11:28:50.012Z,57.33
2023-05-09T11:31:22.184Z,51.13
2023-05-09T11:34:05.044Z,54.95
2023-05-09T11:43:19.544Z,58.97
2023-05-09T11:46:11.797Z,63.70
2023-05-09T12:03:41.689Z,57.35
2023-05-09T12:06:32.983Z,60.90
2023-05-09T12:09:02.534Z,56.70
2023-05-09T12:11:32.247Z,61.08
2023-05-09T12:14:05.021Z,59.90
2023-05-09T12:16:55.930Z,44.88
2023-05-09T12:19:41.244Z,52.90
2023-05-09T12:22:19.274Z,49.35
2023-05-09T12:24:53.043Z,53.90
2023-05-09T12:27:21.269Z,45.40
2023-05-09T12:29:48.722Z,52.10
2023-05-09T12:32:21.005Z,49.95
2023-05-09T12:34:57.424Z,43.15
2023-05-09T12:37:23.906Z,45.08
2023-05-09T12:40:26.108Z,44.28
2023-05-09T12:42:54.254Z,45.70
2023-05-09T12:45:21.161Z,41.30
2023-05-09T12:47:51.834Z,39.63
2023-05-09T12:50:21.349Z,38.47
2023-05-09T12:53:02.723Z,34.38
2023-05-09T12:55:41.097Z,38.85
2023-05-09T12:58:09.963Z,38.97
2023-05-09T13:00:45.008Z,37.55
2023-05-09T13:03:31.737Z,35.45
2023-05-09T13:06:02.345Z,35.70
2023-05-09T13:08:29.748Z,39.22
2023-05-09T13:11:14.857Z,42.15
2023-05-09T13:13:51.654Z,40.75
2023-05-09T13:16:19.805Z,38.17
2023-05-09T13:18:52.386Z,42.38
2023-05-09T13:21:19.234Z,41.38
2023-05-09T13:23:45.798Z,43.08
2023-05-09T13:26:12.284Z,49.15
2023-05-09T13:28:39.300Z,40.55
2023-05-09T13:31:06.654Z,42.85
2023-05-09T13:33:36.809Z,52.97
2023-05-09T13:36:09.260Z,37.22
2023-05-09T13:38:38.751Z,40.22
2023-05-09T13:41:05.891Z,42.65
2023-05-09T13:43:32.173Z,37.25
2023-05-09T13:45:58.595Z,41.67
2023-05-09T13:48:25.011Z,40.83
2023-05-09T13:50:51.675Z,35.75
2023-05-09T13:53:18.043Z,35.83
2023-05-09T13:55:45.405Z,34.50
2023-05-09T13:58:12.520Z,37.25
2023-05-09T14:00:38.811Z,42.90
2023-05-09T14:03:05.375Z,43.53
2023-05-09T14:05:32.008Z,44.78
2023-05-09T14:07:58.407Z,38.60
2023-05-09T14:10:26.610Z,38.80
2023-05-09T14:12:53.947Z,41.83
2023-05-09T14:15:20.509Z,37.58
2023-05-09T14:17:46.976Z,42.58
2023-05-09T14:20:15.575Z,37.08
2023-05-09T14:22:42.593Z,36.28
2023-05-09T14:25:09.200Z,39.28
2023-05-09T14:27:38.339Z,32.65
2023-05-09T14:30:05.036Z,35.42
2023-05-09T14:32:31.574Z,35.20
2023-05-09T14:34:58.030Z,35.70
2023-05-09T14:37:24.381Z,33.85
2023-05-09T14:39:50.801Z,35.42
2023-05-09T14:42:17.245Z,41.38
2023-05-09T14:44:44.642Z,36.75
2023-05-09T14:47:11.054Z,37.78
2023-05-09T14:49:39.698Z,40.90
2023-05-09T14:52:06.026Z,40.53
2023-05-09T14:54:32.537Z,37.00
2023-05-09T14:56:59.472Z,44.38
2023-05-09T14:59:25.857Z,52.92
2023-05-09T15:01:52.591Z,41.75
2023-05-09T15:04:19.018Z,42.80
2023-05-09T15:06:45.777Z,41.30
2023-05-09T15:09:12.917Z,37.85
2023-05-09T15:11:47.415Z,38.50
2023-05-09T15:14:15.089Z,33.10
2023-05-09T15:16:41.734Z,40.83
2023-05-09T15:19:09.199Z,33.00
2023-05-09T15:21:35.818Z,34.65
2023-05-09T15:24:02.485Z,31.58
2023-05-09T15:26:29.143Z,30.67
2023-05-09T15:28:55.468Z,30.50
2023-05-09T15:31:23.215Z,32.85
2023-05-09T15:33:49.556Z,29.02
2023-05-09T15:36:16.232Z,33.65
2023-05-09T15:38:42.606Z,37.35
2023-05-09T15:41:09.213Z,28.77
2023-05-09T15:43:35.493Z,29.45
2023-05-09T15:46:02.390Z,28.83
2023-05-09T15:48:28.784Z,32.28
2023-05-09T15:50:55.103Z,34.03
2023-05-09T15:53:23.321Z,27.40
2023-05-09T15:55:49.909Z,26.15
2023-05-09T15:58:16.376Z,25.48
2023-05-09T16:00:42.766Z,28.77
2023-05-09T16:03:09.338Z,28.23
2023-05-09T16:05:35.785Z,28.70
2023-05-09T16:08:02.232Z,29.85
2023-05-09T16:10:28.530Z,26.55
2023-05-09T16:12:54.929Z,24.70
2023-05-09T16:15:21.359Z,29.98
2023-05-09T16:17:47.761Z,27.60
2023-05-09T16:20:14.297Z,28.35
2023-05-09T16:22:41.619Z,30.25
2023-05-09T16:25:08.600Z,29.25
2023-05-09T16:27:34.990Z,28.95
2023-05-09T16:30:01.680Z,26.63
2023-05-09T16:32:28.183Z,27.17
2023-05-09T16:34:54.534Z,27.02
2023-05-09T16:37:20.843Z,27.90
2023-05-09T16:39:47.346Z,31.75
2023-05-09T16:42:13.662Z,26.33
2023-05-09T16:44:40.043Z,25.45
2023-05-09T16:47:06.893Z,29.25
2023-05-09T16:49:33.252Z,31.67
2023-05-09T16:51:59.767Z,32.63
2023-05-09T16:54:26.068Z,32.83
2023-05-09T16:56:52.486Z,30.42
2023-05-09T16:59:19.971Z,28.42
2023-05-09T17:01:47.470Z,32.13
2023-05-09T17:04:14.464Z,30.58
2023-05-09T17:06:40.970Z,34.80
2023-05-09T17:09:07.566Z,33.72
2023-05-09T17:11:33.987Z,29.88
2023-05-09T17:14:02.310Z,30.67
2023-05-09T17:16:28.956Z,30.40
2023-05-09T17:18:55.387Z,30.85
2023-05-09T17:21:22.865Z,33.78
2023-05-09T17:23:49.189Z,32.97
2023-05-09T17:26:15.553Z,29.02
2023-05-09T17:28:41.898Z,29.35
2023-05-09T17:31:08.345Z,31.13
2023-05-09T17:33:34.741Z,33.88
2023-05-09T17:36:01.475Z,29.52
2023-05-09T17:38:27.878Z,32.17
2023-05-09T17:40:54.293Z,27.75
2023-05-09T17:43:21.604Z,34.13
2023-05-09T17:45:48.005Z,28.48
2023-05-09T17:48:14.454Z,30.55
2023-05-09T17:50:40.916Z,30.10
2023-05-09T17:53:09.323Z,33.13
2023-05-09T17:55:36.010Z,27.25
2023-05-09T17:58:02.508Z,26.75
2023-05-09T18:00:29.199Z,27.92
2023-05-09T18:02:57.704Z,30.38
2023-05-09T18:05:26.210Z,23.27
2023-05-09T18:07:53.525Z,23.45
2023-05-09T18:10:20.535Z,18.10
2023-05-09T18:12:47.338Z,22.05
2023-05-09T18:15:14.029Z,21.65
2023-05-09T18:17:40.593Z,17.23
2023-05-09T18:20:08.455Z,16.20
2023-05-09T18:22:34.791Z,16.60
2023-05-09T18:25:01.121Z,19.23
2023-05-09T18:27:27.440Z,14.07
2023-05-09T18:29:54.062Z,17.20
2023-05-09T18:32:20.655Z,17.20
2023-05-09T18:34:48.321Z,13.50
2023-05-09T18:37:14.695Z,13.25
2023-05-09T18:39:41.016Z,14.07
2023-05-09T18:42:07.439Z,12.52
2023-05-09T18:44:33.804Z,10.00
2023-05-09T18:47:00.365Z,10.13
2023-05-09T18:49:26.973Z,7.32
2023-05-09T18:51:53.361Z,12.18
2023-05-09T18:54:19.724Z,11.07
2023-05-09T18:56:46.559Z,32.97
2023-05-09T18:59:16.050Z,20.60
2023-05-09T19:01:43.836Z,10.38
2023-05-09T19:04:10.220Z,8.95
2023-05-09T19:06:36.696Z,9.13
2023-05-09T19:09:04.211Z,8.15
2023-05-09T19:11:30.606Z,7.50
2023-05-09T19:13:56.962Z,10.73
2023-05-09T19:16:24.598Z,9.18
2023-05-09T19:18:51.243Z,8.77
2023-05-09T19:21:18.630Z,14.15
2023-05-09T19:23:47.641Z,8.90
2023-05-09T19:26:15.348Z,7.88
2023-05-09T19:28:42.386Z,12.90
2023-05-09T19:31:10.023Z,12.05
2023-05-09T19:33:36.427Z,12.02
2023-05-09T19:36:02.927Z,9.82
2023-05-09T19:38:30.448Z,8.73
2023-05-09T19:40:56.799Z,11.70
2023-05-09T19:43:23.150Z,11.85
2023-05-09T19:45:49.523Z,8.80
2023-05-09T19:48:15.890Z,13.20
2023-05-09T19:50:43.169Z,9.75
2023-05-09T19:53:09.660Z,13.32
2023-05-09T19:55:36.619Z,9.25
2023-05-09T19:58:03.293Z,14.13
2023-05-09T20:00:29.611Z,10.25
2023-05-09T20:02:55.994Z,12.50
2023-05-09T20:05:22.326Z,14.85
2023-05-09T20:07:49.319Z,13.80
2023-05-09T20:10:16.143Z,9.48
2023-05-09T20:12:43.359Z,11.60
2023-05-09T20:15:10.083Z,13.45
2023-05-09T20:17:36.505Z,10.15
2023-05-09T20:20:04.084Z,9.80
2023-05-09T20:22:30.414Z,11.63
2023-05-09T20:24:56.749Z,16.17
2023-05-09T20:27:23.504Z,13.00
2023-05-09T20:29:49.833Z,13.93
2023-05-09T20:32:16.136Z,12.80
2023-05-09T20:34:42.463Z,12.43
2023-05-09T20:37:08.924Z,13.13
2023-05-09T20:39:35.358Z,17.88
2023-05-09T20:42:02.312Z,10.00
2023-05-09T20:44:29.068Z,17.95
2023-05-09T20:46:55.609Z,9.75
2023-05-09T20:49:22.652Z,11.65
2023-05-09T20:51:49.073Z,16.83
2023-05-09T20:54:17.494Z,8.95
2023-05-09T20:56:43.774Z,9.68
2023-05-09T20:59:10.120Z,9.63
2023-05-09T21:01:36.652Z,11.93
2023-05-09T21:04:08.163Z,6.88
2023-05-09T21:06:36.032Z,11.23
2023-05-09T21:09:03.234Z,4.65
2023-05-09T21:11:30.123Z,6.82
2023-05-09T21:13:56.543Z,4.90
2023-05-09T21:22:43.508Z,8.73
2023-05-09T21:25:10.025Z,5.07
2023-05-09T21:27:36.316Z,9.20
2023-05-09T21:30:02.689Z,7.30
2023-05-09T21:32:29.047Z,5.70
2023-05-09T21:34:55.501Z,6.85
2023-05-09T21:37:21.836Z,6.30
2023-05-09T21:39:48.197Z,2.63
2023-05-09T21:42:14.625Z,6.65
2023-05-09T21:44:41.023Z,9.05
2023-05-09T21:47:07.418Z,5.43
2023-05-09T21:49:33.812Z,8.02
2023-05-09T21:52:00.186Z,6.90
2023-05-09T21:54:26.489Z,6.07
2023-05-09T21:56:52.771Z,3.50
2023-05-09T21:59:20.720Z,10.23
2023-05-09T22:01:47.050Z,2.00
2023-05-09T22:04:13.395Z,8.90
2023-05-09T22:06:41.564Z,4.65
2023-05-09T22:09:09.084Z,4.78
2023-05-09T22:11:35.560Z,2.35
2023-05-09T22:14:01.916Z,1.70
2023-05-09T22:16:28.724Z,1.73
2023-05-09T22:18:55.713Z,2.30
2023-05-09T22:21:22.016Z,0.55
2023-05-09T22:23:48.319Z,2.08
2023-05-09T22:26:14.621Z,4.05
2023-05-09T22:28:40.983Z,5.75
2023-05-09T22:31:07.619Z,2.70
2023-05-09T22:33:34.343Z,1.10
2023-05-09T22:36:01.039Z,1.85
2023-05-09T22:38:27.353Z,2.03
2023-05-09T22:40:53.627Z,5.72
2023-05-09T22:43:20.207Z,2.60
2023-05-09T22:45:46.550Z,0.50
2023-05-09T22:48:12.872Z,1.13
2023-05-09T22:50:39.153Z,1.85
2023-05-09T22:53:05.463Z,3.20
2023-05-09T22:55:31.807Z,2.08
2023-05-09T22:57:58.092Z,2.03
2023-05-09T23:00:24.380Z,2.25
2023-05-09T23:02:50.949Z,2.65
2023-05-09T23:05:17.386Z,1.70
2023-05-09T23:07:44.524Z,1.30
2023-05-09T23:10:10.881Z,3.92
2023-05-09T23:12:37.995Z,1.98
2023-05-09T23:15:06.272Z,4.85
2023-05-09T23:17:32.630Z,1.05
2023-05-09T23:20:00.535Z,0.90
2023-05-09T23:22:26.987Z,4.53
2023-05-09T23:24:53.355Z,0.63
2023-05-09T23:27:19.637Z,0.90
2023-05-09T23:29:45.932Z,1.13
2023-05-09T23:32:12.269Z,1.85
2023-05-09T23:34:38.807Z,1.92
2023-05-09T23:37:05.139Z,1.00
2023-05-09T23:39:31.582Z,0.43
2023-05-09T23:41:58.135Z,1.30
2023-05-09T23:44:25.438Z,3.08
2023-05-09T23:46:51.841Z,1.10
2023-05-09T23:49:18.199Z,0.93
2023-05-09T23:51:44.517Z,2.65
2023-05-09T23:54:10.797Z,0.60
2023-05-09T23:56:37.218Z,3.15
2023-05-09T23:59:03.520Z,2.22
